YFO weather

Flin Flon Airport
Flin Flon, Manitoba, Canada

Public forecast

Using degrees Celsius for public forecast. Weather courtesy of forecast.io.

METAR (pilot weather report)

Retrieved 2019/05/23 23:00 UTC (1 hour ago):

CYFO 232300Z 14007KT 15SM FEW100 BKN250 15/03 A2999 RMK AC2CI4 LAST OBS/NEXT 241100UTC SLP167 DENSITY ALT 1200FT

TAF (pilot weather forecast)

Closest forecast is The Pas Airport, 47.2 nm (87.4 km) SSE. Retrieved 2019/05/24 01:39 UTC (0 seconds ago):

TAF CYQD 240038Z 2401/2413 14015G25KT P6SM FEW100 BKN250 FM240600 18010KT P6SM BKN100 BKN200 RMK FCST BASED ON AUTO OBS. NXT FCST BY 240700Z